sensor_id;sensor_type;location;lat;lon;timestamp;P1;durP1;ratioP1;P2;durP2;ratioP2
15504;SDS011;7854;52.184;5.942;2022-12-24T00:02:52;15;;;5;;
15504;SDS011;7854;52.184;5.942;2022-12-24T00:04:46;16;;;4;;
15504;SDS011;7854;52.184;5.942;2022-12-24T00:07:00;21;;;4;;
15504;SDS011;7854;52.184;5.942;2022-12-24T00:09:14;25;;;5;;
15504;SDS011;7854;52.184;5.942;2022-12-24T00:11:29;22;;;3;;
15504;SDS011;7854;52.184;5.942;2022-12-24T00:13:44;34;;;5;;
15504;SDS011;7854;52.184;5.942;2022-12-24T00:15:58;25;;;5;;
15504;SDS011;7854;52.184;5.942;2022-12-24T00:18:13;17;;;5;;
15504;SDS011;7854;52.184;5.942;2022-12-24T00:20:27;22;;;4;;
15504;SDS011;7854;52.184;5.942;2022-12-24T00:22:41;28;;;5;;
15504;SDS011;7854;52.184;5.942;2022-12-24T00:24:56;32;;;6;;
15504;SDS011;7854;52.184;5.942;2022-12-24T00:27:10;30;;;5;;
15504;SDS011;7854;52.184;5.942;2022-12-24T00:29:24;47;;;5;;
15504;SDS011;7854;52.184;5.942;2022-12-24T00:31:39;22;;;5;;
15504;SDS011;7854;52.184;5.942;2022-12-24T00:33:54;16;;;5;;
15504;SDS011;7854;52.184;5.942;2022-12-24T00:36:08;20;;;4;;
15504;SDS011;7854;52.184;5.942;2022-12-24T00:38:22;26;;;6;;
15504;SDS011;7854;52.184;5.942;2022-12-24T00:40:37;25;;;5;;
15504;SDS011;7854;52.184;5.942;2022-12-24T00:42:51;34;;;5;;
15504;SDS011;7854;52.184;5.942;2022-12-24T00:45:06;29;;;4;;
15504;SDS011;7854;52.184;5.942;2022-12-24T00:47:20;20;;;5;;
15504;SDS011;7854;52.184;5.942;2022-12-24T00:49:36;16;;;5;;
15504;SDS011;7854;52.184;5.942;2022-12-24T00:51:49;22;;;4;;
15504;SDS011;7854;52.184;5.942;2022-12-24T00:54:03;38;;;4;;
15504;SDS011;7854;52.184;5.942;2022-12-24T00:56:18;39;;;6;;
15504;SDS011;7854;52.184;5.942;2022-12-24T00:58:32;34;;;5;;
15504;SDS011;7854;52.184;5.942;2022-12-24T01:00:47;32;;;6;;
15504;SDS011;7854;52.184;5.942;2022-12-24T01:03:01;28;;;7;;
15504;SDS011;7854;52.184;5.942;2022-12-24T01:05:16;28;;;5;;
15504;SDS011;7854;52.184;5.942;2022-12-24T01:07:30;20;;;4;;
15504;SDS011;7854;52.184;5.942;2022-12-24T01:09:44;23;;;5;;
15504;SDS011;7854;52.184;5.942;2022-12-24T01:11:59;16;;;3;;
15504;SDS011;7854;52.184;5.942;2022-12-24T01:14:14;34;;;6;;
15504;SDS011;7854;52.184;5.942;2022-12-24T01:16:28;15;;;4;;
15504;SDS011;7854;52.184;5.942;2022-12-24T01:18:43;32;;;4;;
15504;SDS011;7854;52.184;5.942;2022-12-24T01:20:58;21;;;4;;
15504;SDS011;7854;52.184;5.942;2022-12-24T01:23:10;31;;;6;;
15504;SDS011;7854;52.184;5.942;2022-12-24T01:25:25;14;;;3;;
15504;SDS011;7854;52.184;5.942;2022-12-24T01:27:39;20;;;4;;
15504;SDS011;7854;52.184;5.942;2022-12-24T01:29:53;23;;;5;;
15504;SDS011;7854;52.184;5.942;2022-12-24T01:32:08;21;;;5;;
15504;SDS011;7854;52.184;5.942;2022-12-24T01:34:21;19;;;4;;
15504;SDS011;7854;52.184;5.942;2022-12-24T01:36:36;20;;;4;;
15504;SDS011;7854;52.184;5.942;2022-12-24T01:38:50;13;;;4;;
15504;SDS011;7854;52.184;5.942;2022-12-24T01:41:05;26;;;5;;
15504;SDS011;7854;52.184;5.942;2022-12-24T01:43:20;24;;;5;;
15504;SDS011;7854;52.184;5.942;2022-12-24T01:45:50;21;;;6;;
15504;SDS011;7854;52.184;5.942;2022-12-24T01:47:48;45;;;5;;
15504;SDS011;7854;52.184;5.942;2022-12-24T01:50:09;12;;;4;;
15504;SDS011;7854;52.184;5.942;2022-12-24T01:52:18;17;;;3;;
15504;SDS011;7854;52.184;5.942;2022-12-24T01:54:32;23;;;5;;
15504;SDS011;7854;52.184;5.942;2022-12-24T01:56:47;27;;;5;;
15504;SDS011;7854;52.184;5.942;2022-12-24T01:59:02;33;;;5;;
15504;SDS011;7854;52.184;5.942;2022-12-24T02:01:15;41;;;6;;
15504;SDS011;7854;52.184;5.942;2022-12-24T02:03:29;39;;;5;;
15504;SDS011;7854;52.184;5.942;2022-12-24T02:05:45;16;;;4;;
15504;SDS011;7854;52.184;5.942;2022-12-24T02:07:58;33;;;6;;
15504;SDS011;7854;52.184;5.942;2022-12-24T02:10:13;17;;;5;;
15504;SDS011;7854;52.184;5.942;2022-12-24T02:12:28;20;;;6;;
15504;SDS011;7854;52.184;5.942;2022-12-24T02:14:42;17;;;5;;
15504;SDS011;7854;52.184;5.942;2022-12-24T02:16:57;36;;;7;;
15504;SDS011;7854;52.184;5.942;2022-12-24T02:19:15;39;;;6;;
15504;SDS011;7854;52.184;5.942;2022-12-24T02:21:29;36;;;5;;
15504;SDS011;7854;52.184;5.942;2022-12-24T02:23:46;38;;;5;;
15504;SDS011;7854;52.184;5.942;2022-12-24T02:25:57;28;;;5;;
15504;SDS011;7854;52.184;5.942;2022-12-24T02:28:11;43;;;5;;
15504;SDS011;7854;52.184;5.942;2022-12-24T02:30:23;36;;;4;;
15504;SDS011;7854;52.184;5.942;2022-12-24T02:32:42;29;;;5;;
15504;SDS011;7854;52.184;5.942;2022-12-24T02:34:53;26;;;5;;
15504;SDS011;7854;52.184;5.942;2022-12-24T02:37:06;39;;;5;;
15504;SDS011;7854;52.184;5.942;2022-12-24T02:39:22;38;;;6;;
15504;SDS011;7854;52.184;5.942;2022-12-24T02:41:35;47;;;5;;
15504;SDS011;7854;52.184;5.942;2022-12-24T02:43:50;35;;;6;;
15504;SDS011;7854;52.184;5.942;2022-12-24T02:46:05;19;;;6;;
15504;SDS011;7854;52.184;5.942;2022-12-24T02:48:18;48;;;6;;
15504;SDS011;7854;52.184;5.942;2022-12-24T02:50:32;71;;;5;;
15504;SDS011;7854;52.184;5.942;2022-12-24T02:52:47;29;;;5;;
15504;SDS011;7854;52.184;5.942;2022-12-24T02:55:04;56;;;5;;
15504;SDS011;7854;52.184;5.942;2022-12-24T02:57:17;24;;;5;;
15504;SDS011;7854;52.184;5.942;2022-12-24T02:59:34;70;;;5;;
15504;SDS011;7854;52.184;5.942;2022-12-24T03:01:46;45;;;7;;
15504;SDS011;7854;52.184;5.942;2022-12-24T03:04:03;15;;;4;;
15504;SDS011;7854;52.184;5.942;2022-12-24T03:06:15;35;;;8;;
15504;SDS011;7854;52.184;5.942;2022-12-24T03:08:29;24;;;4;;
15504;SDS011;7854;52.184;5.942;2022-12-24T03:10:45;34;;;5;;
15504;SDS011;7854;52.184;5.942;2022-12-24T03:12:58;70;;;6;;
15504;SDS011;7854;52.184;5.942;2022-12-24T03:15:12;27;;;4;;
15504;SDS011;7854;52.184;5.942;2022-12-24T03:17:26;23;;;3;;
15504;SDS011;7854;52.184;5.942;2022-12-24T03:19:40;27;;;6;;
15504;SDS011;7854;52.184;5.942;2022-12-24T03:21:55;36;;;5;;
15504;SDS011;7854;52.184;5.942;2022-12-24T03:24:08;27;;;4;;
15504;SDS011;7854;52.184;5.942;2022-12-24T03:26:23;30;;;6;;
15504;SDS011;7854;52.184;5.942;2022-12-24T03:28:37;31;;;6;;
15504;SDS011;7854;52.184;5.942;2022-12-24T03:30:52;36;;;5;;
15504;SDS011;7854;52.184;5.942;2022-12-24T03:33:07;36;;;6;;
15504;SDS011;7854;52.184;5.942;2022-12-24T03:35:20;25;;;5;;
15504;SDS011;7854;52.184;5.942;2022-12-24T03:37:34;34;;;4;;
15504;SDS011;7854;52.184;5.942;2022-12-24T03:39:48;21;;;4;;
15504;SDS011;7854;52.184;5.942;2022-12-24T03:42:03;26;;;5;;
15504;SDS011;7854;52.184;5.942;2022-12-24T03:44:18;30;;;5;;
15504;SDS011;7854;52.184;5.942;2022-12-24T03:46:32;27;;;4;;
15504;SDS011;7854;52.184;5.942;2022-12-24T03:48:46;25;;;5;;
15504;SDS011;7854;52.184;5.942;2022-12-24T03:51:01;34;;;6;;
15504;SDS011;7854;52.184;5.942;2022-12-24T03:53:15;33;;;5;;
15504;SDS011;7854;52.184;5.942;2022-12-24T03:55:30;24;;;4;;
15504;SDS011;7854;52.184;5.942;2022-12-24T03:57:44;28;;;3;;
15504;SDS011;7854;52.184;5.942;2022-12-24T03:59:59;38;;;4;;
15504;SDS011;7854;52.184;5.942;2022-12-24T04:02:13;21;;;3;;
15504;SDS011;7854;52.184;5.942;2022-12-24T04:04:28;22;;;4;;
15504;SDS011;7854;52.184;5.942;2022-12-24T04:06:42;30;;;5;;
15504;SDS011;7854;52.184;5.942;2022-12-24T04:08:56;37;;;6;;
15504;SDS011;7854;52.184;5.942;2022-12-24T04:11:12;27;;;5;;
15504;SDS011;7854;52.184;5.942;2022-12-24T04:13:25;31;;;6;;
15504;SDS011;7854;52.184;5.942;2022-12-24T04:15:39;46;;;6;;
15504;SDS011;7854;52.184;5.942;2022-12-24T04:20:09;20;;;5;;
15504;SDS011;7854;52.184;5.942;2022-12-24T04:22:23;33;;;6;;
15504;SDS011;7854;52.184;5.942;2022-12-24T04:24:37;64;;;7;;
15504;SDS011;7854;52.184;5.942;2022-12-24T04:26:52;59;;;8;;
15504;SDS011;7854;52.184;5.942;2022-12-24T04:29:06;29;;;5;;
15504;SDS011;7854;52.184;5.942;2022-12-24T04:31:21;27;;;5;;
15504;SDS011;7854;52.184;5.942;2022-12-24T04:33:35;43;;;8;;
15504;SDS011;7854;52.184;5.942;2022-12-24T04:35:50;25;;;6;;
15504;SDS011;7854;52.184;5.942;2022-12-24T04:38:04;51;;;6;;
15504;SDS011;7854;52.184;5.942;2022-12-24T04:40:19;28;;;6;;
15504;SDS011;7854;52.184;5.942;2022-12-24T04:42:33;23;;;7;;
15504;SDS011;7854;52.184;5.942;2022-12-24T04:44:47;36;;;7;;
15504;SDS011;7854;52.184;5.942;2022-12-24T04:47:02;44;;;8;;
15504;SDS011;7854;52.184;5.942;2022-12-24T04:49:16;32;;;8;;
15504;SDS011;7854;52.184;5.942;2022-12-24T04:51:31;55;;;9;;
15504;SDS011;7854;52.184;5.942;2022-12-24T04:53:45;43;;;10;;
15504;SDS011;7854;52.184;5.942;2022-12-24T04:56:00;23;;;7;;
15504;SDS011;7854;52.184;5.942;2022-12-24T04:58:14;49;;;10;;
15504;SDS011;7854;52.184;5.942;2022-12-24T05:00:29;50;;;10;;
15504;SDS011;7854;52.184;5.942;2022-12-24T05:02:43;35;;;10;;
15504;SDS011;7854;52.184;5.942;2022-12-24T05:04:57;54;;;10;;
15504;SDS011;7854;52.184;5.942;2022-12-24T05:07:12;34;;;9;;
15504;SDS011;7854;52.184;5.942;2022-12-24T05:09:26;31;;;9;;
15504;SDS011;7854;52.184;5.942;2022-12-24T05:11:41;45;;;11;;
15504;SDS011;7854;52.184;5.942;2022-12-24T05:13:55;36;;;11;;
15504;SDS011;7854;52.184;5.942;2022-12-24T05:16:10;42;;;11;;
15504;SDS011;7854;52.184;5.942;2022-12-24T05:18:24;50;;;12;;
15504;SDS011;7854;52.184;5.942;2022-12-24T05:20:39;53;;;10;;
15504;SDS011;7854;52.184;5.942;2022-12-24T05:22:53;31;;;9;;
15504;SDS011;7854;52.184;5.942;2022-12-24T05:25:08;43;;;10;;
15504;SDS011;7854;52.184;5.942;2022-12-24T05:27:22;31;;;10;;
15504;SDS011;7854;52.184;5.942;2022-12-24T05:29:36;38;;;12;;
15504;SDS011;7854;52.184;5.942;2022-12-24T05:31:51;52;;;10;;
15504;SDS011;7854;52.184;5.942;2022-12-24T05:34:05;27;;;10;;
15504;SDS011;7854;52.184;5.942;2022-12-24T05:36:20;36;;;10;;
15504;SDS011;7854;52.184;5.942;2022-12-24T05:38:34;45;;;10;;
15504;SDS011;7854;52.184;5.942;2022-12-24T05:40:49;35;;;10;;
15504;SDS011;7854;52.184;5.942;2022-12-24T05:43:03;37;;;10;;
15504;SDS011;7854;52.184;5.942;2022-12-24T05:45:17;30;;;9;;
15504;SDS011;7854;52.184;5.942;2022-12-24T05:47:32;55;;;10;;
15504;SDS011;7854;52.184;5.942;2022-12-24T05:49:46;39;;;9;;
15504;SDS011;7854;52.184;5.942;2022-12-24T05:52:00;41;;;9;;
15504;SDS011;7854;52.184;5.942;2022-12-24T05:54:15;48;;;9;;
15504;SDS011;7854;52.184;5.942;2022-12-24T05:56:30;28;;;8;;
15504;SDS011;7854;52.184;5.942;2022-12-24T05:58:44;39;;;11;;
15504;SDS011;7854;52.184;5.942;2022-12-24T06:00:57;36;;;9;;
15504;SDS011;7854;52.184;5.942;2022-12-24T06:03:12;35;;;9;;
15504;SDS011;7854;52.184;5.942;2022-12-24T06:05:26;18;;;8;;
15504;SDS011;7854;52.184;5.942;2022-12-24T06:07:41;30;;;9;;
15504;SDS011;7854;52.184;5.942;2022-12-24T06:09:55;33;;;10;;
15504;SDS011;7854;52.184;5.942;2022-12-24T06:12:09;30;;;9;;
15504;SDS011;7854;52.184;5.942;2022-12-24T06:14:24;29;;;7;;
15504;SDS011;7854;52.184;5.942;2022-12-24T06:16:39;116;;;9;;
15504;SDS011;7854;52.184;5.942;2022-12-24T06:18:53;43;;;8;;
15504;SDS011;7854;52.184;5.942;2022-12-24T06:21:08;80;;;11;;
15504;SDS011;7854;52.184;5.942;2022-12-24T06:25:36;46;;;9;;
15504;SDS011;7854;52.184;5.942;2022-12-24T06:27:51;32;;;8;;
15504;SDS011;7854;52.184;5.942;2022-12-24T06:30:05;34;;;8;;
15504;SDS011;7854;52.184;5.942;2022-12-24T06:32:19;35;;;6;;
15504;SDS011;7854;52.184;5.942;2022-12-24T06:34:34;22;;;7;;
15504;SDS011;7854;52.184;5.942;2022-12-24T06:36:49;43;;;8;;
15504;SDS011;7854;52.184;5.942;2022-12-24T06:39:03;37;;;8;;
15504;SDS011;7854;52.184;5.942;2022-12-24T06:41:18;27;;;8;;
15504;SDS011;7854;52.184;5.942;2022-12-24T06:43:32;27;;;7;;
15504;SDS011;7854;52.184;5.942;2022-12-24T06:45:46;41;;;8;;
15504;SDS011;7854;52.184;5.942;2022-12-24T06:48:01;25;;;7;;
15504;SDS011;7854;52.184;5.942;2022-12-24T06:50:15;26;;;7;;
15504;SDS011;7854;52.184;5.942;2022-12-24T06:52:29;34;;;8;;
15504;SDS011;7854;52.184;5.942;2022-12-24T06:54:44;35;;;8;;
15504;SDS011;7854;52.184;5.942;2022-12-24T06:56:58;41;;;9;;
15504;SDS011;7854;52.184;5.942;2022-12-24T06:59:13;48;;;7;;
15504;SDS011;7854;52.184;5.942;2022-12-24T07:01:28;43;;;7;;
15504;SDS011;7854;52.184;5.942;2022-12-24T07:03:42;42;;;8;;
15504;SDS011;7854;52.184;5.942;2022-12-24T07:05:57;31;;;7;;
15504;SDS011;7854;52.184;5.942;2022-12-24T07:08:11;44;;;7;;
15504;SDS011;7854;52.184;5.942;2022-12-24T07:10:25;31;;;8;;
15504;SDS011;7854;52.184;5.942;2022-12-24T07:12:40;29;;;8;;
15504;SDS011;7854;52.184;5.942;2022-12-24T07:14:54;29;;;7;;
15504;SDS011;7854;52.184;5.942;2022-12-24T07:17:08;43;;;9;;
15504;SDS011;7854;52.184;5.942;2022-12-24T07:19:23;38;;;8;;
15504;SDS011;7854;52.184;5.942;2022-12-24T07:21:38;59;;;8;;
15504;SDS011;7854;52.184;5.942;2022-12-24T07:23:52;35;;;8;;
15504;SDS011;7854;52.184;5.942;2022-12-24T07:26:07;35;;;8;;
15504;SDS011;7854;52.184;5.942;2022-12-24T07:28:21;43;;;8;;
15504;SDS011;7854;52.184;5.942;2022-12-24T07:30:35;38;;;8;;
15504;SDS011;7854;52.184;5.942;2022-12-24T07:32:50;55;;;8;;
15504;SDS011;7854;52.184;5.942;2022-12-24T07:35:05;40;;;9;;
15504;SDS011;7854;52.184;5.942;2022-12-24T07:37:19;51;;;8;;
15504;SDS011;7854;52.184;5.942;2022-12-24T07:39:33;37;;;8;;
15504;SDS011;7854;52.184;5.942;2022-12-24T07:41:48;32;;;8;;
15504;SDS011;7854;52.184;5.942;2022-12-24T07:44:02;43;;;11;;
15504;SDS011;7854;52.184;5.942;2022-12-24T07:46:17;28;;;7;;
15504;SDS011;7854;52.184;5.942;2022-12-24T07:48:31;47;;;8;;
15504;SDS011;7854;52.184;5.942;2022-12-24T07:50:47;54;;;9;;
15504;SDS011;7854;52.184;5.942;2022-12-24T07:53:00;38;;;8;;
15504;SDS011;7854;52.184;5.942;2022-12-24T07:55:14;64;;;9;;
15504;SDS011;7854;52.184;5.942;2022-12-24T07:57:29;37;;;10;;
15504;SDS011;7854;52.184;5.942;2022-12-24T07:59:43;48;;;10;;
15504;SDS011;7854;52.184;5.942;2022-12-24T08:01:58;37;;;7;;
15504;SDS011;7854;52.184;5.942;2022-12-24T08:04:12;27;;;6;;
15504;SDS011;7854;52.184;5.942;2022-12-24T08:06:27;30;;;6;;
15504;SDS011;7854;52.184;5.942;2022-12-24T08:08:41;26;;;6;;
15504;SDS011;7854;52.184;5.942;2022-12-24T08:10:59;30;;;5;;
15504;SDS011;7854;52.184;5.942;2022-12-24T08:13:09;40;;;8;;
15504;SDS011;7854;52.184;5.942;2022-12-24T08:15:24;39;;;7;;
15504;SDS011;7854;52.184;5.942;2022-12-24T08:17:38;37;;;8;;
15504;SDS011;7854;52.184;5.942;2022-12-24T08:19:53;38;;;7;;
15504;SDS011;7854;52.184;5.942;2022-12-24T08:22:08;19;;;6;;
15504;SDS011;7854;52.184;5.942;2022-12-24T08:24:21;38;;;7;;
15504;SDS011;7854;52.184;5.942;2022-12-24T08:26:36;41;;;7;;
15504;SDS011;7854;52.184;5.942;2022-12-24T08:28:50;47;;;9;;
15504;SDS011;7854;52.184;5.942;2022-12-24T08:31:04;30;;;6;;
15504;SDS011;7854;52.184;5.942;2022-12-24T08:33:19;43;;;7;;
15504;SDS011;7854;52.184;5.942;2022-12-24T08:35:33;28;;;6;;
15504;SDS011;7854;52.184;5.942;2022-12-24T08:37:48;34;;;7;;
15504;SDS011;7854;52.184;5.942;2022-12-24T08:40:02;31;;;5;;
15504;SDS011;7854;52.184;5.942;2022-12-24T08:42:16;22;;;7;;
15504;SDS011;7854;52.184;5.942;2022-12-24T08:44:31;46;;;6;;
15504;SDS011;7854;52.184;5.942;2022-12-24T08:46:45;25;;;6;;
15504;SDS011;7854;52.184;5.942;2022-12-24T08:49:00;42;;;8;;
15504;SDS011;7854;52.184;5.942;2022-12-24T08:51:14;36;;;6;;
15504;SDS011;7854;52.184;5.942;2022-12-24T08:55:43;42;;;7;;
15504;SDS011;7854;52.184;5.942;2022-12-24T08:57:58;45;;;7;;
15504;SDS011;7854;52.184;5.942;2022-12-24T09:00:12;18;;;5;;
15504;SDS011;7854;52.184;5.942;2022-12-24T09:02:26;51;;;7;;
15504;SDS011;7854;52.184;5.942;2022-12-24T09:04:40;48;;;7;;
15504;SDS011;7854;52.184;5.942;2022-12-24T09:06:55;37;;;6;;
15504;SDS011;7854;52.184;5.942;2022-12-24T09:09:09;78;;;8;;
15504;SDS011;7854;52.184;5.942;2022-12-24T09:11:23;30;;;7;;
15504;SDS011;7854;52.184;5.942;2022-12-24T09:13:38;22;;;6;;
15504;SDS011;7854;52.184;5.942;2022-12-24T09:15:52;24;;;5;;
15504;SDS011;7854;52.184;5.942;2022-12-24T09:18:07;37;;;6;;
15504;SDS011;7854;52.184;5.942;2022-12-24T09:20:21;20;;;5;;
15504;SDS011;7854;52.184;5.942;2022-12-24T09:22:36;29;;;11;;
15504;SDS011;7854;52.184;5.942;2022-12-24T09:24:52;60;;;7;;
15504;SDS011;7854;52.184;5.942;2022-12-24T09:27:05;48;;;7;;
15504;SDS011;7854;52.184;5.942;2022-12-24T09:29:19;50;;;7;;
15504;SDS011;7854;52.184;5.942;2022-12-24T09:31:34;26;;;5;;
15504;SDS011;7854;52.184;5.942;2022-12-24T09:33:48;28;;;6;;
15504;SDS011;7854;52.184;5.942;2022-12-24T09:36:03;37;;;7;;
15504;SDS011;7854;52.184;5.942;2022-12-24T09:38:16;52;;;9;;
15504;SDS011;7854;52.184;5.942;2022-12-24T09:40:32;20;;;6;;
15504;SDS011;7854;52.184;5.942;2022-12-24T09:42:47;40;;;9;;
15504;SDS011;7854;52.184;5.942;2022-12-24T09:45:02;39;;;6;;
15504;SDS011;7854;52.184;5.942;2022-12-24T09:49:32;22;;;6;;
15504;SDS011;7854;52.184;5.942;2022-12-24T09:51:44;27;;;8;;
15504;SDS011;7854;52.184;5.942;2022-12-24T09:53:59;19;;;6;;
15504;SDS011;7854;52.184;5.942;2022-12-24T09:56:15;16;;;5;;
15504;SDS011;7854;52.184;5.942;2022-12-24T09:58:28;26;;;6;;
15504;SDS011;7854;52.184;5.942;2022-12-24T10:00:41;22;;;5;;
15504;SDS011;7854;52.184;5.942;2022-12-24T10:02:55;22;;;6;;
15504;SDS011;7854;52.184;5.942;2022-12-24T10:05:12;25;;;5;;
15504;SDS011;7854;52.184;5.942;2022-12-24T10:07:28;24;;;7;;
15504;SDS011;7854;52.184;5.942;2022-12-24T10:09:40;20;;;6;;
15504;SDS011;7854;52.184;5.942;2022-12-24T10:11:55;23;;;6;;
15504;SDS011;7854;52.184;5.942;2022-12-24T10:14:12;29;;;5;;
15504;SDS011;7854;52.184;5.942;2022-12-24T10:16:23;18;;;5;;
15504;SDS011;7854;52.184;5.942;2022-12-24T10:18:37;47;;;6;;
15504;SDS011;7854;52.184;5.942;2022-12-24T10:20:53;16;;;6;;
15504;SDS011;7854;52.184;5.942;2022-12-24T10:23:06;29;;;6;;
15504;SDS011;7854;52.184;5.942;2022-12-24T10:25:21;30;;;6;;
15504;SDS011;7854;52.184;5.942;2022-12-24T10:27:35;27;;;5;;
15504;SDS011;7854;52.184;5.942;2022-12-24T10:29:49;31;;;6;;
15504;SDS011;7854;52.184;5.942;2022-12-24T10:32:09;16;;;5;;
15504;SDS011;7854;52.184;5.942;2022-12-24T10:34:18;29;;;6;;
15504;SDS011;7854;52.184;5.942;2022-12-24T10:36:33;19;;;6;;
15504;SDS011;7854;52.184;5.942;2022-12-24T10:38:47;19;;;5;;
15504;SDS011;7854;52.184;5.942;2022-12-24T10:41:01;35;;;7;;
15504;SDS011;7854;52.184;5.942;2022-12-24T10:43:17;26;;;7;;
15504;SDS011;7854;52.184;5.942;2022-12-24T10:45:34;24;;;5;;
15504;SDS011;7854;52.184;5.942;2022-12-24T10:47:45;14;;;6;;
15504;SDS011;7854;52.184;5.942;2022-12-24T10:50:00;28;;;6;;
15504;SDS011;7854;52.184;5.942;2022-12-24T10:52:14;16;;;5;;
15504;SDS011;7854;52.184;5.942;2022-12-24T10:54:28;15;;;5;;
15504;SDS011;7854;52.184;5.942;2022-12-24T10:56:43;37;;;6;;
15504;SDS011;7854;52.184;5.942;2022-12-24T10:58:57;21;;;6;;
15504;SDS011;7854;52.184;5.942;2022-12-24T11:01:11;21;;;5;;
15504;SDS011;7854;52.184;5.942;2022-12-24T11:03:28;32;;;8;;
15504;SDS011;7854;52.184;5.942;2022-12-24T11:05:40;28;;;5;;
15504;SDS011;7854;52.184;5.942;2022-12-24T11:07:58;10;;;5;;
15504;SDS011;7854;52.184;5.942;2022-12-24T11:10:13;15;;;5;;
15504;SDS011;7854;52.184;5.942;2022-12-24T11:12:24;33;;;5;;
15504;SDS011;7854;52.184;5.942;2022-12-24T11:14:38;20;;;5;;
15504;SDS011;7854;52.184;5.942;2022-12-24T11:16:54;13;;;5;;
15504;SDS011;7854;52.184;5.942;2022-12-24T11:19:14;24;;;5;;
15504;SDS011;7854;52.184;5.942;2022-12-24T11:23:35;40;;;6;;
15504;SDS011;7854;52.184;5.942;2022-12-24T11:25:50;29;;;6;;
15504;SDS011;7854;52.184;5.942;2022-12-24T11:28:10;34;;;6;;
15504;SDS011;7854;52.184;5.942;2022-12-24T11:30:21;26;;;6;;
15504;SDS011;7854;52.184;5.942;2022-12-24T11:32:32;25;;;5;;
15504;SDS011;7854;52.184;5.942;2022-12-24T11:34:47;23;;;5;;
15504;SDS011;7854;52.184;5.942;2022-12-24T11:37:06;17;;;5;;
15504;SDS011;7854;52.184;5.942;2022-12-24T11:39:18;19;;;7;;
15504;SDS011;7854;52.184;5.942;2022-12-24T11:41:34;33;;;5;;
15504;SDS011;7854;52.184;5.942;2022-12-24T11:43:45;14;;;4;;
15504;SDS011;7854;52.184;5.942;2022-12-24T11:45:59;14;;;6;;
15504;SDS011;7854;52.184;5.942;2022-12-24T11:48:22;21;;;4;;
15504;SDS011;7854;52.184;5.942;2022-12-24T11:50:29;28;;;5;;
15504;SDS011;7854;52.184;5.942;2022-12-24T11:52:42;29;;;5;;
15504;SDS011;7854;52.184;5.942;2022-12-24T11:55:00;26;;;4;;
15504;SDS011;7854;52.184;5.942;2022-12-24T11:57:12;23;;;5;;
15504;SDS011;7854;52.184;5.942;2022-12-24T11:59:27;9;;;4;;
15504;SDS011;7854;52.184;5.942;2022-12-24T12:01:44;22;;;5;;
15504;SDS011;7854;52.184;5.942;2022-12-24T12:06:13;30;;;5;;
15504;SDS011;7854;52.184;5.942;2022-12-24T12:08:23;14;;;4;;
15504;SDS011;7854;52.184;5.942;2022-12-24T12:10:38;23;;;4;;
15504;SDS011;7854;52.184;5.942;2022-12-24T12:12:55;20;;;3;;
15504;SDS011;7854;52.184;5.942;2022-12-24T12:15:10;15;;;4;;
15504;SDS011;7854;52.184;5.942;2022-12-24T12:17:24;14;;;3;;
15504;SDS011;7854;52.184;5.942;2022-12-24T12:19:37;12;;;4;;
15504;SDS011;7854;52.184;5.942;2022-12-24T12:21:50;13;;;4;;
15504;SDS011;7854;52.184;5.942;2022-12-24T12:24:05;10;;;3;;
15504;SDS011;7854;52.184;5.942;2022-12-24T12:26:21;13;;;4;;
15504;SDS011;7854;52.184;5.942;2022-12-24T12:28:35;16;;;3;;
15504;SDS011;7854;52.184;5.942;2022-12-24T12:30:53;11;;;3;;
15504;SDS011;7854;52.184;5.942;2022-12-24T12:33:03;15;;;2;;
15504;SDS011;7854;52.184;5.942;2022-12-24T12:35:20;12;;;2;;
15504;SDS011;7854;52.184;5.942;2022-12-24T12:39:46;9;;;2;;
15504;SDS011;7854;52.184;5.942;2022-12-24T12:42:01;16;;;3;;
15504;SDS011;7854;52.184;5.942;2022-12-24T12:44:18;5;;;2;;
15504;SDS011;7854;52.184;5.942;2022-12-24T12:46:32;7;;;3;;
15504;SDS011;7854;52.184;5.942;2022-12-24T12:48:48;10;;;3;;
15504;SDS011;7854;52.184;5.942;2022-12-24T12:51:01;8;;;3;;
15504;SDS011;7854;52.184;5.942;2022-12-24T12:53:19;9;;;3;;
15504;SDS011;7854;52.184;5.942;2022-12-24T12:55:31;20;;;3;;
15504;SDS011;7854;52.184;5.942;2022-12-24T12:57:41;19;;;3;;
15504;SDS011;7854;52.184;5.942;2022-12-24T12:59:57;15;;;4;;
15504;SDS011;7854;52.184;5.942;2022-12-24T13:02:34;23;;;4;;
15504;SDS011;7854;52.184;5.942;2022-12-24T13:04:39;16;;;4;;
15504;SDS011;7854;52.184;5.942;2022-12-24T13:06:54;15;;;3;;
15504;SDS011;7854;52.184;5.942;2022-12-24T13:08:58;10;;;3;;
15504;SDS011;7854;52.184;5.942;2022-12-24T13:11:11;17;;;3;;
15504;SDS011;7854;52.184;5.942;2022-12-24T13:13:28;6;;;2;;
15504;SDS011;7854;52.184;5.942;2022-12-24T13:15:45;13;;;3;;
15504;SDS011;7854;52.184;5.942;2022-12-24T13:17:55;21;;;3;;
15504;SDS011;7854;52.184;5.942;2022-12-24T13:20:12;26;;;3;;
15504;SDS011;7854;52.184;5.942;2022-12-24T13:22:20;14;;;4;;
15504;SDS011;7854;52.184;5.942;2022-12-24T13:24:35;32;;;4;;
15504;SDS011;7854;52.184;5.942;2022-12-24T13:27:05;12;;;2;;
15504;SDS011;7854;52.184;5.942;2022-12-24T13:29:28;15;;;3;;
15504;SDS011;7854;52.184;5.942;2022-12-24T13:31:24;8;;;3;;
15504;SDS011;7854;52.184;5.942;2022-12-24T13:33:45;54;;;4;;
15504;SDS011;7854;52.184;5.942;2022-12-24T13:36:03;16;;;4;;
15504;SDS011;7854;52.184;5.942;2022-12-24T13:40:21;15;;;6;;
15504;SDS011;7854;52.184;5.942;2022-12-24T13:42:45;28;;;4;;
15504;SDS011;7854;52.184;5.942;2022-12-24T13:44:45;25;;;5;;
15504;SDS011;7854;52.184;5.942;2022-12-24T13:47:00;9;;;3;;
15504;SDS011;7854;52.184;5.942;2022-12-24T13:49:16;20;;;4;;
15504;SDS011;7854;52.184;5.942;2022-12-24T13:51:27;21;;;4;;
15504;SDS011;7854;52.184;5.942;2022-12-24T13:53:42;21;;;4;;
15504;SDS011;7854;52.184;5.942;2022-12-24T13:56:05;13;;;3;;
15504;SDS011;7854;52.184;5.942;2022-12-24T13:58:13;13;;;3;;
15504;SDS011;7854;52.184;5.942;2022-12-24T14:00:27;15;;;3;;
15504;SDS011;7854;52.184;5.942;2022-12-24T14:02:39;6;;;2;;
15504;SDS011;7854;52.184;5.942;2022-12-24T14:04:54;17;;;3;;
15504;SDS011;7854;52.184;5.942;2022-12-24T14:07:08;16;;;4;;
15504;SDS011;7854;52.184;5.942;2022-12-24T14:09:23;12;;;2;;
15504;SDS011;7854;52.184;5.942;2022-12-24T14:12:13;21;;;4;;
15504;SDS011;7854;52.184;5.942;2022-12-24T14:13:53;6;;;3;;
15504;SDS011;7854;52.184;5.942;2022-12-24T14:16:07;19;;;4;;
15504;SDS011;7854;52.184;5.942;2022-12-24T14:18:21;20;;;4;;
15504;SDS011;7854;52.184;5.942;2022-12-24T14:20:35;18;;;4;;
15504;SDS011;7854;52.184;5.942;2022-12-24T14:22:49;27;;;4;;
15504;SDS011;7854;52.184;5.942;2022-12-24T14:25:08;8;;;3;;
15504;SDS011;7854;52.184;5.942;2022-12-24T14:27:19;17;;;3;;
15504;SDS011;7854;52.184;5.942;2022-12-24T14:29:33;11;;;3;;
15504;SDS011;7854;52.184;5.942;2022-12-24T14:31:49;5;;;2;;
15504;SDS011;7854;52.184;5.942;2022-12-24T14:34:05;10;;;3;;
15504;SDS011;7854;52.184;5.942;2022-12-24T14:36:17;14;;;3;;
15504;SDS011;7854;52.184;5.942;2022-12-24T14:38:30;10;;;3;;
15504;SDS011;7854;52.184;5.942;2022-12-24T14:40:48;14;;;3;;
15504;SDS011;7854;52.184;5.942;2022-12-24T14:43:04;18;;;3;;
15504;SDS011;7854;52.184;5.942;2022-12-24T14:45:16;17;;;3;;
15504;SDS011;7854;52.184;5.942;2022-12-24T14:47:29;17;;;3;;
15504;SDS011;7854;52.184;5.942;2022-12-24T14:49:47;6;;;3;;
15504;SDS011;7854;52.184;5.942;2022-12-24T14:51:59;5;;;2;;
15504;SDS011;7854;52.184;5.942;2022-12-24T14:54:15;7;;;2;;
15504;SDS011;7854;52.184;5.942;2022-12-24T14:56:26;18;;;3;;
15504;SDS011;7854;52.184;5.942;2022-12-24T14:58:41;12;;;4;;
15504;SDS011;7854;52.184;5.942;2022-12-24T15:00:56;11;;;3;;
15504;SDS011;7854;52.184;5.942;2022-12-24T15:03:10;22;;;3;;
15504;SDS011;7854;52.184;5.942;2022-12-24T15:07:40;17;;;2;;
15504;SDS011;7854;52.184;5.942;2022-12-24T15:09:53;28;;;3;;
15504;SDS011;7854;52.184;5.942;2022-12-24T15:12:10;15;;;4;;